sensor_id;sensor_type;location;lat;lon;timestamp;P1;durP1;ratioP1;P2;durP2;ratioP2
16900;SDS011;8567;52.540;6.434;2022-07-15T00:00:47;38.00;;;36.13;;
16900;SDS011;8567;52.540;6.434;2022-07-15T00:03:13;35.60;;;33.83;;
16900;SDS011;8567;52.540;6.434;2022-07-15T00:05:41;35.47;;;33.70;;
16900;SDS011;8567;52.540;6.434;2022-07-15T00:08:07;35.15;;;33.35;;
16900;SDS011;8567;52.540;6.434;2022-07-15T00:10:34;35.35;;;33.50;;
16900;SDS011;8567;52.540;6.434;2022-07-15T00:13:01;34.70;;;32.95;;
16900;SDS011;8567;52.540;6.434;2022-07-15T00:15:29;35.60;;;33.80;;
16900;SDS011;8567;52.540;6.434;2022-07-15T00:17:59;32.75;;;31.02;;
16900;SDS011;8567;52.540;6.434;2022-07-15T00:20:28;31.98;;;30.27;;
16900;SDS011;8567;52.540;6.434;2022-07-15T00:22:59;31.88;;;30.27;;
16900;SDS011;8567;52.540;6.434;2022-07-15T00:25:29;31.80;;;30.20;;
16900;SDS011;8567;52.540;6.434;2022-07-15T00:27:57;30.17;;;28.67;;
16900;SDS011;8567;52.540;6.434;2022-07-15T00:30:27;30.40;;;28.90;;
16900;SDS011;8567;52.540;6.434;2022-07-15T00:32:56;31.67;;;30.08;;
16900;SDS011;8567;52.540;6.434;2022-07-15T00:35:25;28.33;;;26.92;;
16900;SDS011;8567;52.540;6.434;2022-07-15T00:37:52;29.88;;;28.42;;
16900;SDS011;8567;52.540;6.434;2022-07-15T00:40:19;30.67;;;29.17;;
16900;SDS011;8567;52.540;6.434;2022-07-15T00:42:46;29.85;;;28.38;;
16900;SDS011;8567;52.540;6.434;2022-07-15T00:45:13;29.80;;;28.30;;
16900;SDS011;8567;52.540;6.434;2022-07-15T00:47:42;28.20;;;26.83;;
16900;SDS011;8567;52.540;6.434;2022-07-15T00:50:11;27.85;;;26.50;;
16900;SDS011;8567;52.540;6.434;2022-07-15T00:52:39;26.75;;;25.45;;
16900;SDS011;8567;52.540;6.434;2022-07-15T00:55:09;28.33;;;26.90;;
16900;SDS011;8567;52.540;6.434;2022-07-15T00:57:37;27.58;;;26.23;;
16900;SDS011;8567;52.540;6.434;2022-07-15T01:00:06;26.00;;;24.75;;
16900;SDS011;8567;52.540;6.434;2022-07-15T01:02:35;27.13;;;25.83;;
16900;SDS011;8567;52.540;6.434;2022-07-15T01:05:03;26.35;;;25.05;;
16900;SDS011;8567;52.540;6.434;2022-07-15T01:07:33;26.63;;;25.27;;
16900;SDS011;8567;52.540;6.434;2022-07-15T01:10:00;27.67;;;26.30;;
16900;SDS011;8567;52.540;6.434;2022-07-15T01:12:26;25.67;;;24.45;;
16900;SDS011;8567;52.540;6.434;2022-07-15T01:14:53;26.08;;;24.83;;
16900;SDS011;8567;52.540;6.434;2022-07-15T01:17:21;26.92;;;25.63;;
16900;SDS011;8567;52.540;6.434;2022-07-15T01:19:48;25.83;;;24.52;;
16900;SDS011;8567;52.540;6.434;2022-07-15T01:22:16;26.45;;;25.15;;
16900;SDS011;8567;52.540;6.434;2022-07-15T01:24:43;24.83;;;23.63;;
16900;SDS011;8567;52.540;6.434;2022-07-15T01:27:10;25.52;;;24.23;;
16900;SDS011;8567;52.540;6.434;2022-07-15T01:29:36;25.48;;;24.23;;
16900;SDS011;8567;52.540;6.434;2022-07-15T01:32:04;25.77;;;24.48;;
16900;SDS011;8567;52.540;6.434;2022-07-15T01:34:31;25.30;;;24.10;;
16900;SDS011;8567;52.540;6.434;2022-07-15T01:36:58;25.25;;;23.95;;
16900;SDS011;8567;52.540;6.434;2022-07-15T01:39:26;26.20;;;24.92;;
16900;SDS011;8567;52.540;6.434;2022-07-15T01:41:54;25.95;;;24.67;;
16900;SDS011;8567;52.540;6.434;2022-07-15T01:44:21;25.55;;;24.33;;
16900;SDS011;8567;52.540;6.434;2022-07-15T01:46:47;25.35;;;24.13;;
16900;SDS011;8567;52.540;6.434;2022-07-15T01:49:14;24.13;;;22.98;;
16900;SDS011;8567;52.540;6.434;2022-07-15T01:51:46;25.45;;;24.23;;
16900;SDS011;8567;52.540;6.434;2022-07-15T01:54:13;25.73;;;24.42;;
16900;SDS011;8567;52.540;6.434;2022-07-15T01:56:42;25.20;;;23.98;;
16900;SDS011;8567;52.540;6.434;2022-07-15T01:59:08;26.27;;;24.98;;
16900;SDS011;8567;52.540;6.434;2022-07-15T02:01:35;26.60;;;25.30;;
16900;SDS011;8567;52.540;6.434;2022-07-15T02:04:02;24.42;;;23.23;;
16900;SDS011;8567;52.540;6.434;2022-07-15T02:06:29;27.63;;;26.27;;
16900;SDS011;8567;52.540;6.434;2022-07-15T02:08:56;27.00;;;25.70;;
16900;SDS011;8567;52.540;6.434;2022-07-15T02:11:23;25.98;;;24.73;;
16900;SDS011;8567;52.540;6.434;2022-07-15T02:13:51;28.23;;;26.83;;
16900;SDS011;8567;52.540;6.434;2022-07-15T02:16:19;27.60;;;26.27;;
16900;SDS011;8567;52.540;6.434;2022-07-15T02:18:45;27.17;;;25.85;;
16900;SDS011;8567;52.540;6.434;2022-07-15T02:21:12;27.20;;;25.90;;
16900;SDS011;8567;52.540;6.434;2022-07-15T02:23:39;27.15;;;25.85;;
16900;SDS011;8567;52.540;6.434;2022-07-15T02:26:06;27.85;;;26.45;;
16900;SDS011;8567;52.540;6.434;2022-07-15T02:28:33;29.10;;;27.70;;
16900;SDS011;8567;52.540;6.434;2022-07-15T02:31:01;28.60;;;27.20;;
16900;SDS011;8567;52.540;6.434;2022-07-15T02:33:27;28.40;;;27.00;;
16900;SDS011;8567;52.540;6.434;2022-07-15T02:35:54;29.45;;;28.05;;
16900;SDS011;8567;52.540;6.434;2022-07-15T02:38:21;28.13;;;26.73;;
16900;SDS011;8567;52.540;6.434;2022-07-15T02:40:48;27.52;;;26.13;;
16900;SDS011;8567;52.540;6.434;2022-07-15T02:43:15;28.75;;;27.35;;
16900;SDS011;8567;52.540;6.434;2022-07-15T02:45:42;30.08;;;28.58;;
16900;SDS011;8567;52.540;6.434;2022-07-15T02:48:10;27.67;;;26.35;;
16900;SDS011;8567;52.540;6.434;2022-07-15T02:50:37;29.05;;;27.65;;
16900;SDS011;8567;52.540;6.434;2022-07-15T02:53:04;28.67;;;27.27;;
16900;SDS011;8567;52.540;6.434;2022-07-15T02:55:31;28.65;;;27.25;;
16900;SDS011;8567;52.540;6.434;2022-07-15T02:57:58;29.17;;;27.77;;
16900;SDS011;8567;52.540;6.434;2022-07-15T03:00:25;28.92;;;27.52;;
16900;SDS011;8567;52.540;6.434;2022-07-15T03:02:52;28.88;;;27.48;;
16900;SDS011;8567;52.540;6.434;2022-07-15T03:05:20;29.23;;;27.83;;
16900;SDS011;8567;52.540;6.434;2022-07-15T03:07:47;28.58;;;27.17;;
16900;SDS011;8567;52.540;6.434;2022-07-15T03:10:13;28.85;;;27.45;;
16900;SDS011;8567;52.540;6.434;2022-07-15T03:12:40;30.00;;;28.50;;
16900;SDS011;8567;52.540;6.434;2022-07-15T03:15:08;29.17;;;27.67;;
16900;SDS011;8567;52.540;6.434;2022-07-15T03:17:36;29.13;;;27.73;;
16900;SDS011;8567;52.540;6.434;2022-07-15T03:20:05;30.13;;;28.63;;
16900;SDS011;8567;52.540;6.434;2022-07-15T03:22:34;28.63;;;27.23;;
16900;SDS011;8567;52.540;6.434;2022-07-15T03:25:00;30.23;;;28.73;;
16900;SDS011;8567;52.540;6.434;2022-07-15T03:27:27;30.23;;;28.63;;
16900;SDS011;8567;52.540;6.434;2022-07-15T03:29:54;27.73;;;26.38;;
16900;SDS011;8567;52.540;6.434;2022-07-15T03:32:21;30.75;;;29.20;;
16900;SDS011;8567;52.540;6.434;2022-07-15T03:34:47;30.20;;;28.70;;
16900;SDS011;8567;52.540;6.434;2022-07-15T03:37:14;30.15;;;28.65;;
16900;SDS011;8567;52.540;6.434;2022-07-15T03:39:43;28.77;;;27.38;;
16900;SDS011;8567;52.540;6.434;2022-07-15T03:42:10;28.10;;;26.73;;
16900;SDS011;8567;52.540;6.434;2022-07-15T03:44:36;28.42;;;27.02;;
16900;SDS011;8567;52.540;6.434;2022-07-15T03:47:03;29.98;;;28.48;;
16900;SDS011;8567;52.540;6.434;2022-07-15T03:49:30;28.55;;;27.15;;
16900;SDS011;8567;52.540;6.434;2022-07-15T03:51:57;30.33;;;28.83;;
16900;SDS011;8567;52.540;6.434;2022-07-15T03:54:23;28.35;;;26.95;;
16900;SDS011;8567;52.540;6.434;2022-07-15T03:56:52;28.90;;;27.50;;
16900;SDS011;8567;52.540;6.434;2022-07-15T03:59:18;29.20;;;27.70;;
16900;SDS011;8567;52.540;6.434;2022-07-15T04:01:46;28.60;;;27.20;;
16900;SDS011;8567;52.540;6.434;2022-07-15T04:04:14;28.45;;;27.05;;
16900;SDS011;8567;52.540;6.434;2022-07-15T04:06:41;27.55;;;26.23;;
16900;SDS011;8567;52.540;6.434;2022-07-15T04:09:08;27.38;;;26.08;;
16900;SDS011;8567;52.540;6.434;2022-07-15T04:11:35;27.95;;;26.55;;
16900;SDS011;8567;52.540;6.434;2022-07-15T04:14:03;28.67;;;27.25;;
16900;SDS011;8567;52.540;6.434;2022-07-15T04:16:31;28.63;;;27.13;;
16900;SDS011;8567;52.540;6.434;2022-07-15T04:18:57;28.00;;;26.60;;
16900;SDS011;8567;52.540;6.434;2022-07-15T04:21:24;27.55;;;26.20;;
16900;SDS011;8567;52.540;6.434;2022-07-15T04:23:51;27.48;;;26.13;;
16900;SDS011;8567;52.540;6.434;2022-07-15T04:26:18;27.40;;;26.08;;
16900;SDS011;8567;52.540;6.434;2022-07-15T04:28:45;26.58;;;25.27;;
16900;SDS011;8567;52.540;6.434;2022-07-15T04:31:13;29.63;;;28.13;;
16900;SDS011;8567;52.540;6.434;2022-07-15T04:33:40;27.45;;;26.15;;
16900;SDS011;8567;52.540;6.434;2022-07-15T04:36:07;29.55;;;28.05;;
16900;SDS011;8567;52.540;6.434;2022-07-15T04:38:34;27.15;;;25.85;;
16900;SDS011;8567;52.540;6.434;2022-07-15T04:41:00;27.27;;;25.98;;
16900;SDS011;8567;52.540;6.434;2022-07-15T04:43:27;27.98;;;26.63;;
16900;SDS011;8567;52.540;6.434;2022-07-15T04:45:54;27.95;;;26.58;;
16900;SDS011;8567;52.540;6.434;2022-07-15T04:48:22;28.08;;;26.67;;
16900;SDS011;8567;52.540;6.434;2022-07-15T04:51:06;27.27;;;25.88;;
16900;SDS011;8567;52.540;6.434;2022-07-15T04:53:33;28.08;;;26.70;;
16900;SDS011;8567;52.540;6.434;2022-07-15T04:56:00;27.73;;;26.38;;
16900;SDS011;8567;52.540;6.434;2022-07-15T04:58:27;26.15;;;24.85;;
16900;SDS011;8567;52.540;6.434;2022-07-15T05:00:53;27.95;;;26.60;;
16900;SDS011;8567;52.540;6.434;2022-07-15T05:03:20;26.85;;;25.55;;
16900;SDS011;8567;52.540;6.434;2022-07-15T05:05:48;26.95;;;25.65;;
16900;SDS011;8567;52.540;6.434;2022-07-15T05:08:15;27.30;;;26.00;;
16900;SDS011;8567;52.540;6.434;2022-07-15T05:10:42;27.33;;;26.02;;
16900;SDS011;8567;52.540;6.434;2022-07-15T05:13:09;27.77;;;26.40;;
16900;SDS011;8567;52.540;6.434;2022-07-15T05:15:35;26.50;;;25.20;;
16900;SDS011;8567;52.540;6.434;2022-07-15T05:18:02;26.35;;;24.95;;
16900;SDS011;8567;52.540;6.434;2022-07-15T05:20:29;27.00;;;25.70;;
16900;SDS011;8567;52.540;6.434;2022-07-15T05:22:57;26.83;;;25.48;;
16900;SDS011;8567;52.540;6.434;2022-07-15T05:25:24;25.25;;;24.05;;
16900;SDS011;8567;52.540;6.434;2022-07-15T05:27:50;26.35;;;25.05;;
16900;SDS011;8567;52.540;6.434;2022-07-15T05:30:17;25.67;;;24.30;;
16900;SDS011;8567;52.540;6.434;2022-07-15T05:32:44;25.13;;;23.92;;
16900;SDS011;8567;52.540;6.434;2022-07-15T05:35:12;25.77;;;24.55;;
16900;SDS011;8567;52.540;6.434;2022-07-15T05:37:40;24.95;;;23.70;;
16900;SDS011;8567;52.540;6.434;2022-07-15T05:40:09;25.38;;;24.15;;
16900;SDS011;8567;52.540;6.434;2022-07-15T05:42:37;25.45;;;24.25;;
16900;SDS011;8567;52.540;6.434;2022-07-15T05:45:05;24.65;;;23.42;;
16900;SDS011;8567;52.540;6.434;2022-07-15T05:47:33;25.55;;;24.30;;
16900;SDS011;8567;52.540;6.434;2022-07-15T05:49:59;26.58;;;25.27;;
16900;SDS011;8567;52.540;6.434;2022-07-15T05:52:26;25.23;;;24.02;;
16900;SDS011;8567;52.540;6.434;2022-07-15T05:54:53;27.02;;;25.73;;
16900;SDS011;8567;52.540;6.434;2022-07-15T05:57:21;23.85;;;22.65;;
16900;SDS011;8567;52.540;6.434;2022-07-15T05:59:48;23.08;;;21.98;;
16900;SDS011;8567;52.540;6.434;2022-07-15T06:02:15;24.13;;;22.85;;
16900;SDS011;8567;52.540;6.434;2022-07-15T06:04:42;23.33;;;22.23;;
16900;SDS011;8567;52.540;6.434;2022-07-15T06:07:09;24.13;;;22.98;;
16900;SDS011;8567;52.540;6.434;2022-07-15T06:09:37;23.90;;;22.73;;
16900;SDS011;8567;52.540;6.434;2022-07-15T06:12:03;23.33;;;22.23;;
16900;SDS011;8567;52.540;6.434;2022-07-15T06:14:32;25.40;;;24.10;;
16900;SDS011;8567;52.540;6.434;2022-07-15T06:16:58;25.83;;;24.52;;
16900;SDS011;8567;52.540;6.434;2022-07-15T06:19:25;26.40;;;25.05;;
16900;SDS011;8567;52.540;6.434;2022-07-15T06:21:52;24.73;;;23.45;;
16900;SDS011;8567;52.540;6.434;2022-07-15T06:24:19;24.23;;;23.02;;
16900;SDS011;8567;52.540;6.434;2022-07-15T06:26:45;25.92;;;24.52;;
16900;SDS011;8567;52.540;6.434;2022-07-15T06:29:12;25.98;;;24.67;;
16900;SDS011;8567;52.540;6.434;2022-07-15T06:31:40;26.85;;;25.50;;
16900;SDS011;8567;52.540;6.434;2022-07-15T06:34:07;26.77;;;25.38;;
16900;SDS011;8567;52.540;6.434;2022-07-15T06:36:34;26.20;;;24.80;;
16900;SDS011;8567;52.540;6.434;2022-07-15T06:39:02;24.30;;;23.05;;
16900;SDS011;8567;52.540;6.434;2022-07-15T06:41:29;26.08;;;24.67;;
16900;SDS011;8567;52.540;6.434;2022-07-15T06:43:56;24.92;;;23.65;;
16900;SDS011;8567;52.540;6.434;2022-07-15T06:46:23;27.83;;;26.33;;
16900;SDS011;8567;52.540;6.434;2022-07-15T06:48:51;30.00;;;28.50;;
16900;SDS011;8567;52.540;6.434;2022-07-15T06:51:17;30.77;;;29.20;;
16900;SDS011;8567;52.540;6.434;2022-07-15T06:53:45;30.15;;;28.65;;
16900;SDS011;8567;52.540;6.434;2022-07-15T06:56:12;29.05;;;27.52;;
16900;SDS011;8567;52.540;6.434;2022-07-15T06:58:39;32.20;;;30.60;;
16900;SDS011;8567;52.540;6.434;2022-07-15T07:01:05;32.83;;;31.02;;
16900;SDS011;8567;52.540;6.434;2022-07-15T07:03:32;34.35;;;32.58;;
16900;SDS011;8567;52.540;6.434;2022-07-15T07:06:01;36.08;;;34.10;;
16900;SDS011;8567;52.540;6.434;2022-07-15T07:08:27;34.83;;;33.13;;
16900;SDS011;8567;52.540;6.434;2022-07-15T07:10:54;35.17;;;33.47;;
16900;SDS011;8567;52.540;6.434;2022-07-15T07:13:21;34.63;;;32.92;;
16900;SDS011;8567;52.540;6.434;2022-07-15T07:15:49;34.95;;;33.20;;
16900;SDS011;8567;52.540;6.434;2022-07-15T07:18:16;34.88;;;32.97;;
16900;SDS011;8567;52.540;6.434;2022-07-15T07:20:43;35.45;;;33.55;;
16900;SDS011;8567;52.540;6.434;2022-07-15T07:23:11;35.08;;;33.38;;
16900;SDS011;8567;52.540;6.434;2022-07-15T07:25:37;35.70;;;33.92;;
16900;SDS011;8567;52.540;6.434;2022-07-15T07:28:04;36.13;;;34.33;;
16900;SDS011;8567;52.540;6.434;2022-07-15T07:30:31;34.88;;;33.17;;
16900;SDS011;8567;52.540;6.434;2022-07-15T07:32:58;32.08;;;30.42;;
16900;SDS011;8567;52.540;6.434;2022-07-15T07:35:25;31.98;;;30.38;;
16900;SDS011;8567;52.540;6.434;2022-07-15T07:37:52;29.23;;;27.80;;
16900;SDS011;8567;52.540;6.434;2022-07-15T07:40:20;30.20;;;28.67;;
16900;SDS011;8567;52.540;6.434;2022-07-15T07:42:47;29.10;;;27.60;;
16900;SDS011;8567;52.540;6.434;2022-07-15T07:45:13;30.35;;;28.85;;
16900;SDS011;8567;52.540;6.434;2022-07-15T07:47:40;29.52;;;28.02;;
16900;SDS011;8567;52.540;6.434;2022-07-15T07:50:09;31.05;;;29.45;;
16900;SDS011;8567;52.540;6.434;2022-07-15T07:52:35;33.03;;;31.42;;
16900;SDS011;8567;52.540;6.434;2022-07-15T07:55:02;34.25;;;32.55;;
16900;SDS011;8567;52.540;6.434;2022-07-15T07:57:31;35.80;;;34.05;;
16900;SDS011;8567;52.540;6.434;2022-07-15T07:59:58;38.90;;;36.97;;
16900;SDS011;8567;52.540;6.434;2022-07-15T08:02:25;39.58;;;37.60;;
16900;SDS011;8567;52.540;6.434;2022-07-15T08:04:52;38.72;;;36.78;;
16900;SDS011;8567;52.540;6.434;2022-07-15T08:07:19;39.65;;;37.63;;
16900;SDS011;8567;52.540;6.434;2022-07-15T08:09:47;43.47;;;41.28;;
16900;SDS011;8567;52.540;6.434;2022-07-15T08:12:13;43.88;;;41.53;;
16900;SDS011;8567;52.540;6.434;2022-07-15T08:14:42;45.97;;;43.65;;
16900;SDS011;8567;52.540;6.434;2022-07-15T08:17:09;45.65;;;43.35;;
16900;SDS011;8567;52.540;6.434;2022-07-15T08:19:36;43.80;;;41.50;;
16900;SDS011;8567;52.540;6.434;2022-07-15T08:22:02;43.90;;;41.70;;
16900;SDS011;8567;52.540;6.434;2022-07-15T08:24:29;47.65;;;44.92;;
16900;SDS011;8567;52.540;6.434;2022-07-15T08:26:56;43.42;;;41.22;;
16900;SDS011;8567;52.540;6.434;2022-07-15T08:29:22;46.70;;;44.30;;
16900;SDS011;8567;52.540;6.434;2022-07-15T08:31:51;45.30;;;43.00;;
16900;SDS011;8567;52.540;6.434;2022-07-15T08:34:17;46.42;;;43.97;;
16900;SDS011;8567;52.540;6.434;2022-07-15T08:36:44;46.63;;;44.20;;
16900;SDS011;8567;52.540;6.434;2022-07-15T08:39:11;44.00;;;41.60;;
16900;SDS011;8567;52.540;6.434;2022-07-15T08:41:39;47.05;;;44.67;;
16900;SDS011;8567;52.540;6.434;2022-07-15T08:44:07;48.28;;;45.80;;
16900;SDS011;8567;52.540;6.434;2022-07-15T08:46:35;45.78;;;43.40;;
16900;SDS011;8567;52.540;6.434;2022-07-15T08:49:04;46.40;;;44.03;;
16900;SDS011;8567;52.540;6.434;2022-07-15T08:51:35;46.22;;;43.85;;
16900;SDS011;8567;52.540;6.434;2022-07-15T08:54:03;41.72;;;39.53;;
16900;SDS011;8567;52.540;6.434;2022-07-15T08:56:31;37.17;;;35.35;;
16900;SDS011;8567;52.540;6.434;2022-07-15T08:59:00;37.72;;;35.83;;
16900;SDS011;8567;52.540;6.434;2022-07-15T09:01:28;37.78;;;35.90;;
16900;SDS011;8567;52.540;6.434;2022-07-15T09:03:55;34.60;;;32.88;;
16900;SDS011;8567;52.540;6.434;2022-07-15T09:06:31;33.50;;;31.77;;
16900;SDS011;8567;52.540;6.434;2022-07-15T09:08:58;32.20;;;30.52;;
16900;SDS011;8567;52.540;6.434;2022-07-15T09:11:56;27.77;;;26.33;;
16900;SDS011;8567;52.540;6.434;2022-07-15T09:14:25;29.02;;;27.50;;
16900;SDS011;8567;52.540;6.434;2022-07-15T09:22:49;24.70;;;23.38;;
16900;SDS011;8567;52.540;6.434;2022-07-15T09:25:17;24.77;;;23.48;;
16900;SDS011;8567;52.540;6.434;2022-07-15T09:27:44;20.85;;;19.75;;
16900;SDS011;8567;52.540;6.434;2022-07-15T09:30:12;19.20;;;18.23;;
16900;SDS011;8567;52.540;6.434;2022-07-15T09:32:58;18.83;;;17.90;;
16900;SDS011;8567;52.540;6.434;2022-07-15T09:35:44;18.48;;;17.55;;
16900;SDS011;8567;52.540;6.434;2022-07-15T09:38:34;15.68;;;14.90;;
16900;SDS011;8567;52.540;6.434;2022-07-15T09:41:14;14.07;;;13.38;;
16900;SDS011;8567;52.540;6.434;2022-07-15T09:43:48;11.75;;;11.15;;
16900;SDS011;8567;52.540;6.434;2022-07-15T09:46:17;11.23;;;10.52;;
16900;SDS011;8567;52.540;6.434;2022-07-15T09:48:46;9.73;;;9.13;;
16900;SDS011;8567;52.540;6.434;2022-07-15T09:51:14;9.05;;;8.45;;
16900;SDS011;8567;52.540;6.434;2022-07-15T09:53:44;7.25;;;6.95;;
16900;SDS011;8567;52.540;6.434;2022-07-15T09:56:11;5.95;;;5.65;;
16900;SDS011;8567;52.540;6.434;2022-07-15T09:58:40;5.63;;;5.43;;
16900;SDS011;8567;52.540;6.434;2022-07-15T10:01:08;5.57;;;5.38;;
16900;SDS011;8567;52.540;6.434;2022-07-15T10:03:37;6.35;;;6.05;;
16900;SDS011;8567;52.540;6.434;2022-07-15T10:06:04;6.88;;;6.57;;
16900;SDS011;8567;52.540;6.434;2022-07-15T10:08:32;7.20;;;6.90;;
16900;SDS011;8567;52.540;6.434;2022-07-15T10:11:02;7.93;;;7.53;;
16900;SDS011;8567;52.540;6.434;2022-07-15T10:13:56;9.90;;;9.27;;
16900;SDS011;8567;52.540;6.434;2022-07-15T10:22:27;13.80;;;12.98;;
16900;SDS011;8567;52.540;6.434;2022-07-15T10:25:12;14.90;;;14.05;;
16900;SDS011;8567;52.540;6.434;2022-07-15T10:27:52;17.42;;;15.88;;
16900;SDS011;8567;52.540;6.434;2022-07-15T10:30:26;17.77;;;16.85;;
16900;SDS011;8567;52.540;6.434;2022-07-15T10:33:10;22.15;;;20.90;;
16900;SDS011;8567;52.540;6.434;2022-07-15T10:35:45;21.08;;;19.80;;
16900;SDS011;8567;52.540;6.434;2022-07-15T10:38:22;24.27;;;23.00;;
16900;SDS011;8567;52.540;6.434;2022-07-15T10:41:01;20.60;;;19.48;;
16900;SDS011;8567;52.540;6.434;2022-07-15T10:43:45;21.73;;;20.63;;
16900;SDS011;8567;52.540;6.434;2022-07-15T10:46:21;22.77;;;21.58;;
16900;SDS011;8567;52.540;6.434;2022-07-15T10:48:53;22.17;;;20.98;;
16900;SDS011;8567;52.540;6.434;2022-07-15T10:51:57;21.63;;;20.42;;
16900;SDS011;8567;52.540;6.434;2022-07-15T10:54:37;19.83;;;18.80;;
16900;SDS011;8567;52.540;6.434;2022-07-15T10:57:07;22.38;;;21.23;;
16900;SDS011;8567;52.540;6.434;2022-07-15T10:59:39;20.50;;;19.40;;
16900;SDS011;8567;52.540;6.434;2022-07-15T11:02:15;21.00;;;19.90;;
16900;SDS011;8567;52.540;6.434;2022-07-15T11:04:44;20.85;;;19.73;;
16900;SDS011;8567;52.540;6.434;2022-07-15T11:07:17;19.48;;;18.48;;
16900;SDS011;8567;52.540;6.434;2022-07-15T11:09:52;15.77;;;14.98;;
16900;SDS011;8567;52.540;6.434;2022-07-15T11:12:20;17.20;;;16.27;;
16900;SDS011;8567;52.540;6.434;2022-07-15T11:14:51;15.25;;;14.35;;
16900;SDS011;8567;52.540;6.434;2022-07-15T11:17:20;14.88;;;14.13;;
16900;SDS011;8567;52.540;6.434;2022-07-15T11:19:51;12.85;;;12.23;;
16900;SDS011;8567;52.540;6.434;2022-07-15T11:22:20;11.50;;;10.90;;
16900;SDS011;8567;52.540;6.434;2022-07-15T11:24:48;9.60;;;9.13;;
16900;SDS011;8567;52.540;6.434;2022-07-15T11:27:15;7.60;;;7.25;;
16900;SDS011;8567;52.540;6.434;2022-07-15T11:29:53;6.22;;;5.93;;
16900;SDS011;8567;52.540;6.434;2022-07-15T11:32:24;7.03;;;6.15;;
16900;SDS011;8567;52.540;6.434;2022-07-15T11:34:52;6.32;;;5.97;;
16900;SDS011;8567;52.540;6.434;2022-07-15T11:37:23;6.60;;;6.30;;
16900;SDS011;8567;52.540;6.434;2022-07-15T11:40:03;8.55;;;8.05;;
16900;SDS011;8567;52.540;6.434;2022-07-15T11:42:32;7.85;;;7.45;;
16900;SDS011;8567;52.540;6.434;2022-07-15T11:45:33;7.13;;;6.82;;
16900;SDS011;8567;52.540;6.434;2022-07-15T11:48:01;7.38;;;7.05;;
16900;SDS011;8567;52.540;6.434;2022-07-15T11:50:31;7.78;;;7.38;;
16900;SDS011;8567;52.540;6.434;2022-07-15T11:52:58;9.10;;;8.65;;
16900;SDS011;8567;52.540;6.434;2022-07-15T11:55:25;11.55;;;10.95;;
16900;SDS011;8567;52.540;6.434;2022-07-15T11:57:52;9.55;;;9.05;;
16900;SDS011;8567;52.540;6.434;2022-07-15T12:00:27;10.93;;;10.43;;
16900;SDS011;8567;52.540;6.434;2022-07-15T12:03:06;11.82;;;11.27;;
16900;SDS011;8567;52.540;6.434;2022-07-15T12:05:33;13.48;;;12.80;;
16900;SDS011;8567;52.540;6.434;2022-07-15T12:08:00;14.32;;;13.63;;
16900;SDS011;8567;52.540;6.434;2022-07-15T12:10:33;16.20;;;15.40;;
16900;SDS011;8567;52.540;6.434;2022-07-15T12:13:01;12.98;;;12.38;;
16900;SDS011;8567;52.540;6.434;2022-07-15T12:15:29;14.05;;;13.40;;
16900;SDS011;8567;52.540;6.434;2022-07-15T12:17:57;13.35;;;12.73;;
16900;SDS011;8567;52.540;6.434;2022-07-15T12:20:25;13.73;;;12.98;;
16900;SDS011;8567;52.540;6.434;2022-07-15T12:23:02;13.32;;;12.73;;
16900;SDS011;8567;52.540;6.434;2022-07-15T12:25:30;14.27;;;13.57;;
16900;SDS011;8567;52.540;6.434;2022-07-15T12:27:57;14.13;;;13.43;;
16900;SDS011;8567;52.540;6.434;2022-07-15T12:30:29;15.70;;;14.98;;
16900;SDS011;8567;52.540;6.434;2022-07-15T12:33:12;17.60;;;16.75;;
16900;SDS011;8567;52.540;6.434;2022-07-15T12:35:41;19.70;;;18.75;;
16900;SDS011;8567;52.540;6.434;2022-07-15T12:38:08;20.67;;;19.65;;
16900;SDS011;8567;52.540;6.434;2022-07-15T12:40:34;20.45;;;19.42;;
16900;SDS011;8567;52.540;6.434;2022-07-15T12:43:01;16.42;;;15.52;;
16900;SDS011;8567;52.540;6.434;2022-07-15T12:45:34;14.30;;;13.60;;
16900;SDS011;8567;52.540;6.434;2022-07-15T12:48:03;15.75;;;14.95;;
16900;SDS011;8567;52.540;6.434;2022-07-15T12:50:31;13.20;;;12.38;;
16900;SDS011;8567;52.540;6.434;2022-07-15T12:53:01;12.35;;;11.75;;
16900;SDS011;8567;52.540;6.434;2022-07-15T12:55:29;13.23;;;12.52;;
16900;SDS011;8567;52.540;6.434;2022-07-15T12:58:03;17.13;;;16.33;;
16900;SDS011;8567;52.540;6.434;2022-07-15T13:00:32;11.07;;;10.38;;
16900;SDS011;8567;52.540;6.434;2022-07-15T13:03:00;9.65;;;9.25;;
16900;SDS011;8567;52.540;6.434;2022-07-15T13:05:30;9.75;;;9.25;;
16900;SDS011;8567;52.540;6.434;2022-07-15T13:07:59;10.25;;;9.68;;
16900;SDS011;8567;52.540;6.434;2022-07-15T13:10:28;9.48;;;9.05;;
16900;SDS011;8567;52.540;6.434;2022-07-15T13:12:56;10.45;;;9.95;;
16900;SDS011;8567;52.540;6.434;2022-07-15T13:15:23;10.98;;;10.38;;
16900;SDS011;8567;52.540;6.434;2022-07-15T13:17:51;10.85;;;10.35;;
16900;SDS011;8567;52.540;6.434;2022-07-15T13:20:18;11.40;;;10.80;;
16900;SDS011;8567;52.540;6.434;2022-07-15T13:22:45;12.32;;;11.73;;
16900;SDS011;8567;52.540;6.434;2022-07-15T13:25:12;11.57;;;11.07;;
16900;SDS011;8567;52.540;6.434;2022-07-15T13:27:40;13.57;;;12.88;;
16900;SDS011;8567;52.540;6.434;2022-07-15T13:30:08;14.05;;;13.35;;
16900;SDS011;8567;52.540;6.434;2022-07-15T13:32:35;13.63;;;12.95;;
16900;SDS011;8567;52.540;6.434;2022-07-15T13:35:02;13.40;;;12.77;;
16900;SDS011;8567;52.540;6.434;2022-07-15T13:37:30;12.60;;;12.00;;
16900;SDS011;8567;52.540;6.434;2022-07-15T13:39:57;12.68;;;12.07;;
16900;SDS011;8567;52.540;6.434;2022-07-15T13:42:23;13.23;;;12.63;;
16900;SDS011;8567;52.540;6.434;2022-07-15T13:44:52;14.25;;;13.63;;
16900;SDS011;8567;52.540;6.434;2022-07-15T13:47:19;14.63;;;13.93;;
16900;SDS011;8567;52.540;6.434;2022-07-15T13:49:46;14.57;;;13.88;;
16900;SDS011;8567;52.540;6.434;2022-07-15T13:52:30;14.45;;;13.75;;
16900;SDS011;8567;52.540;6.434;2022-07-15T13:54:57;13.65;;;13.00;;
16900;SDS011;8567;52.540;6.434;2022-07-15T13:57:25;13.80;;;13.07;;
16900;SDS011;8567;52.540;6.434;2022-07-15T13:59:53;13.38;;;12.77;;
16900;SDS011;8567;52.540;6.434;2022-07-15T14:02:19;13.00;;;12.40;;
16900;SDS011;8567;52.540;6.434;2022-07-15T14:04:46;11.70;;;11.10;;
16900;SDS011;8567;52.540;6.434;2022-07-15T14:07:13;9.02;;;8.63;;
16900;SDS011;8567;52.540;6.434;2022-07-15T14:09:40;11.27;;;10.48;;
16900;SDS011;8567;52.540;6.434;2022-07-15T14:12:07;12.30;;;11.70;;
16900;SDS011;8567;52.540;6.434;2022-07-15T14:14:34;13.27;;;12.68;;
16900;SDS011;8567;52.540;6.434;2022-07-15T14:17:02;10.95;;;10.25;;
16900;SDS011;8567;52.540;6.434;2022-07-15T14:19:29;9.77;;;9.25;;
16900;SDS011;8567;52.540;6.434;2022-07-15T14:21:55;9.35;;;8.93;;
16900;SDS011;8567;52.540;6.434;2022-07-15T14:24:22;9.18;;;8.57;;
16900;SDS011;8567;52.540;6.434;2022-07-15T14:26:49;9.07;;;8.32;;
16900;SDS011;8567;52.540;6.434;2022-07-15T14:29:19;8.57;;;8.18;;
16900;SDS011;8567;52.540;6.434;2022-07-15T14:31:46;10.68;;;10.18;;
16900;SDS011;8567;52.540;6.434;2022-07-15T14:34:14;10.77;;;10.25;;
16900;SDS011;8567;52.540;6.434;2022-07-15T14:36:41;10.27;;;9.70;;
16900;SDS011;8567;52.540;6.434;2022-07-15T14:39:08;11.75;;;11.15;;
16900;SDS011;8567;52.540;6.434;2022-07-15T14:41:35;11.52;;;10.73;;
16900;SDS011;8567;52.540;6.434;2022-07-15T14:44:02;11.25;;;10.55;;
16900;SDS011;8567;52.540;6.434;2022-07-15T14:46:29;11.00;;;10.40;;
16900;SDS011;8567;52.540;6.434;2022-07-15T14:48:56;11.40;;;10.70;;
16900;SDS011;8567;52.540;6.434;2022-07-15T14:51:24;13.13;;;12.48;;
16900;SDS011;8567;52.540;6.434;2022-07-15T14:53:51;13.63;;;12.98;;
16900;SDS011;8567;52.540;6.434;2022-07-15T14:56:17;15.00;;;14.10;;
16900;SDS011;8567;52.540;6.434;2022-07-15T14:58:45;14.52;;;13.82;;